Terminal Aerodrome Forecast
Issued by NWS

Home | Current Version | Previous Version | Text Only | Print | Product List | Glossary On
Versions: 1 2 3 4 5 6 7 8 9 10 11 12 13 14 15 16 17 18 19 20 21
000
FTUS43 KGRR 011700
TAFLAN
TAF
KLAN 011740Z 0118/0218 06020G30KT 1/2SM SN BLSN VV004
     FM020500 05015G25KT 1/2SM SN BLSN OVC008
     FM020900 01014G24KT 4SM -SN BLSN OVC015
     FM021300 35014G21KT P6SM BKN050=

USA.gov is the U.S. government's official web portal to all federal, state and local government web resources and services.